createdAt,value
2023-01-12T00:01:54.891Z,97015.66
2023-01-12T00:04:22.433Z,97020.84
2023-01-12T00:06:51.368Z,97020.97
2023-01-12T00:09:18.892Z,97013.88
2023-01-12T00:11:46.359Z,97015.78
2023-01-12T00:14:14.197Z,97008.00
2023-01-12T00:16:41.974Z,97005.41
2023-01-12T00:19:12.050Z,97016.09
2023-01-12T00:21:59.181Z,97011.72
2023-01-12T00:24:28.968Z,97015.28
2023-01-12T00:26:57.618Z,97008.31
2023-01-12T00:29:26.282Z,97019.34
2023-01-12T00:31:54.643Z,97022.59
2023-01-12T00:34:23.034Z,97020.53
2023-01-12T00:36:52.625Z,97023.25
2023-01-12T00:39:21.013Z,97029.44
2023-01-12T00:42:06.343Z,97034.63
2023-01-12T00:44:51.600Z,97037.50
2023-01-12T00:47:19.907Z,97036.88
2023-01-12T00:49:48.558Z,97035.22
2023-01-12T00:52:35.232Z,97024.69
2023-01-12T00:55:02.739Z,97022.25
2023-01-12T00:57:30.247Z,97008.31
2023-01-12T00:59:59.176Z,97019.66
2023-01-12T01:02:27.351Z,97017.06
2023-01-12T01:04:54.829Z,97025.50
2023-01-12T01:07:24.055Z,97018.53
2023-01-12T01:09:52.400Z,97024.53
2023-01-12T01:12:20.267Z,97019.34
2023-01-12T01:14:48.395Z,97032.16
2023-01-12T01:17:16.066Z,97024.53
2023-01-12T01:19:43.970Z,97023.06
2023-01-12T01:22:12.479Z,97023.06
2023-01-12T01:24:41.461Z,97022.91
2023-01-12T01:27:08.993Z,97035.75
2023-01-12T01:29:36.589Z,97032.03
2023-01-12T01:32:04.346Z,97032.69
2023-01-12T01:34:31.916Z,97034.97
2023-01-12T01:36:59.842Z,97042.47
2023-01-12T01:39:27.382Z,97042.16
2023-01-12T01:41:56.240Z,97026.59
2023-01-12T01:44:53.855Z,97031.47
2023-01-12T01:47:36.125Z,97033.41
2023-01-12T01:50:13.297Z,97030.66
2023-01-12T01:52:43.402Z,97023.88
2023-01-12T01:55:15.007Z,97014.28
2023-01-12T01:57:47.368Z,97018.50
2023-01-12T02:00:15.544Z,97018.69
2023-01-12T02:02:45.812Z,97021.09
2023-01-12T02:05:15.173Z,97027.13
2023-01-12T02:07:42.839Z,97035.06
2023-01-12T02:10:11.263Z,97031.78
2023-01-12T02:12:56.947Z,97025.47
2023-01-12T02:15:45.105Z,97022.75
2023-01-12T02:18:20.121Z,97015.91
2023-01-12T02:20:54.637Z,97005.84
2023-01-12T02:23:50.046Z,97009.56
2023-01-12T02:26:54.860Z,97019.78
2023-01-12T02:29:53.929Z,97008.75
2023-01-12T02:32:32.710Z,97017.47
2023-01-12T02:35:11.687Z,97011.63
2023-01-12T02:37:46.399Z,97009.03
2023-01-12T02:40:22.604Z,97000.31
2023-01-12T02:42:59.930Z,96991.41
2023-01-12T02:45:35.616Z,96983.47
2023-01-12T02:48:10.449Z,96987.53
2023-01-12T02:50:51.325Z,96983.69
2023-01-12T02:53:24.214Z,96978.31
2023-01-12T02:55:53.283Z,96973.13
2023-01-12T02:58:24.151Z,96983.34
2023-01-12T03:00:56.021Z,96973.78
2023-01-12T03:03:26.022Z,96974.09
2023-01-12T03:05:56.146Z,96963.41
2023-01-12T03:08:28.655Z,96960.00
2023-01-12T03:11:12.939Z,96959.34
2023-01-12T03:13:44.747Z,96953.63
2023-01-12T03:16:16.174Z,96946.81
2023-01-12T03:18:50.965Z,96943.25
2023-01-12T03:21:26.474Z,96936.28
2023-01-12T03:24:00.433Z,96929.31
2023-01-12T03:26:30.958Z,96932.56
2023-01-12T03:29:04.875Z,96921.38
2023-01-12T03:31:33.198Z,96929.31
2023-01-12T03:34:02.432Z,96925.59
2023-01-12T03:36:40.632Z,96919.28
2023-01-12T03:39:15.806Z,96917.50
2023-01-12T03:41:54.069Z,96917.34
2023-01-12T03:44:28.310Z,96925.94
2023-01-12T03:47:02.280Z,96932.25
2023-01-12T03:49:36.250Z,96939.91
2023-01-12T03:52:06.099Z,96939.91
2023-01-12T03:54:37.710Z,96937.16
2023-01-12T03:57:06.060Z,96932.25
2023-01-12T03:59:33.834Z,96935.84
2023-01-12T04:02:01.398Z,96939.38
2023-01-12T04:04:28.996Z,96937.78
2023-01-12T04:06:58.634Z,96941.31
2023-01-12T04:09:26.866Z,96930.78
2023-01-12T04:12:20.327Z,96929.84
2023-01-12T04:14:48.583Z,96932.25
2023-01-12T04:17:17.036Z,96927.06
2023-01-12T04:19:44.527Z,96921.88
2023-01-12T04:22:34.005Z,96925.13
2023-01-12T04:25:01.467Z,96919.94
2023-01-12T04:27:29.053Z,96929.00
2023-01-12T04:29:56.548Z,96921.69
2023-01-12T04:32:24.054Z,96923.47
2023-01-12T04:34:51.560Z,96921.53
2023-01-12T04:37:20.428Z,96922.19
2023-01-12T04:39:47.936Z,96923.16
2023-01-12T04:42:29.605Z,96927.38
2023-01-12T04:44:57.072Z,96914.56
2023-01-12T04:47:24.585Z,96917.28
2023-01-12T04:49:52.060Z,96923.78
2023-01-12T04:52:20.869Z,96916.28
2023-01-12T04:54:48.322Z,96912.06
2023-01-12T04:57:15.783Z,96920.16
2023-01-12T04:59:43.234Z,96918.53
2023-01-12T05:02:10.763Z,96903.78
2023-01-12T05:04:38.212Z,96897.47
2023-01-12T05:07:05.791Z,96895.84
2023-01-12T05:09:52.108Z,96894.88
2023-01-12T05:12:20.289Z,96895.84
2023-01-12T05:14:47.754Z,96886.28
2023-01-12T05:17:15.249Z,96878.34
2023-01-12T05:19:42.743Z,96879.00
2023-01-12T05:22:10.259Z,96872.03
2023-01-12T05:24:39.057Z,96870.91
2023-01-12T05:27:06.571Z,96882.91
2023-01-12T05:29:34.068Z,96878.69
2023-01-12T05:32:01.617Z,96873.66
2023-01-12T05:34:29.098Z,96882.41
2023-01-12T05:36:56.560Z,96867.13
2023-01-12T05:39:24.043Z,96883.03
2023-01-12T05:42:10.802Z,96889.00
2023-01-12T05:44:38.279Z,96880.44
2023-01-12T05:47:05.843Z,96873.44
2023-01-12T05:49:33.319Z,96872.63
2023-01-12T05:52:00.819Z,96866.66
2023-01-12T05:54:28.376Z,96856.28
2023-01-12T05:56:57.162Z,96862.13
2023-01-12T05:59:24.993Z,96861.13
2023-01-12T06:01:52.448Z,96855.94
2023-01-12T06:04:19.987Z,96849.63
2023-01-12T06:06:48.697Z,96866.53
2023-01-12T06:09:17.319Z,96860.22
2023-01-12T06:12:02.371Z,96855.00
2023-01-12T06:14:31.491Z,96870.59
2023-01-12T06:16:59.000Z,96862.66
2023-01-12T06:19:26.532Z,96864.13
2023-01-12T06:21:55.172Z,96865.09
2023-01-12T06:24:22.668Z,96865.75
2023-01-12T06:26:50.433Z,96856.03
2023-01-12T06:29:17.903Z,96861.22
2023-01-12T06:31:46.715Z,96852.78
2023-01-12T06:34:14.198Z,96851.00
2023-01-12T06:36:42.746Z,96847.59
2023-01-12T06:39:12.077Z,96845.97
2023-01-12T06:41:57.430Z,96840.75
2023-01-12T06:44:24.943Z,96838.03
2023-01-12T06:46:53.732Z,96835.56
2023-01-12T06:49:21.190Z,96826.19
2023-01-12T06:51:48.876Z,96845.16
2023-01-12T06:54:18.407Z,96841.41
2023-01-12T06:56:46.197Z,96831.84
2023-01-12T06:59:14.079Z,96844.03
2023-01-12T07:01:42.268Z,96847.41
2023-01-12T07:04:11.117Z,96849.22
2023-01-12T07:06:38.628Z,96852.47
2023-01-12T07:09:06.233Z,96841.78
2023-01-12T07:11:33.918Z,96840.81
2023-01-12T07:14:01.405Z,96846.16
2023-01-12T07:16:28.937Z,96848.91
2023-01-12T07:18:56.449Z,96841.78
2023-01-12T07:21:25.301Z,96833.81
2023-01-12T07:23:52.759Z,96830.09
2023-01-12T07:26:20.231Z,96824.09
2023-01-12T07:28:47.735Z,96832.69
2023-01-12T07:31:15.219Z,96837.09
2023-01-12T07:33:42.707Z,96835.63
2023-01-12T07:36:10.501Z,96838.22
2023-01-12T07:38:39.304Z,96836.59
2023-01-12T07:41:26.731Z,96834.16
2023-01-12T07:43:54.196Z,96829.78
2023-01-12T07:46:21.722Z,96835.28
2023-01-12T07:48:49.247Z,96836.56
2023-01-12T07:51:16.738Z,96844.34
2023-01-12T07:53:45.602Z,96842.69
2023-01-12T07:56:15.961Z,96831.66
2023-01-12T07:58:43.518Z,96829.06
2023-01-12T08:01:11.136Z,96838.50
2023-01-12T08:03:39.656Z,96840.28
2023-01-12T08:06:07.604Z,96837.50
2023-01-12T08:08:35.500Z,96841.59
2023-01-12T08:11:05.222Z,96831.03
2023-01-12T08:13:32.813Z,96830.38
2023-01-12T08:16:06.322Z,96831.22
2023-01-12T08:18:39.385Z,96830.25
2023-01-12T08:21:12.668Z,96841.59
2023-01-12T08:23:43.547Z,96839.81
2023-01-12T08:26:16.084Z,96839.50
2023-01-12T08:28:49.197Z,96835.63
2023-01-12T08:33:53.057Z,96830.94
2023-01-12T08:36:21.693Z,96830.09
2023-01-12T08:38:49.509Z,96818.09
2023-01-12T08:41:33.473Z,96824.28
2023-01-12T08:44:05.882Z,96823.44
2023-01-12T08:46:35.237Z,96823.63
2023-01-12T08:49:03.472Z,96817.78
2023-01-12T08:51:31.331Z,96821.03
2023-01-12T08:53:58.806Z,96813.91
2023-01-12T08:56:27.725Z,96810.31
2023-01-12T08:58:55.952Z,96808.38
2023-01-12T09:01:23.584Z,96815.69
2023-01-12T09:03:51.133Z,96813.91
2023-01-12T09:06:20.578Z,96820.75
2023-01-12T09:08:49.014Z,96813.75
2023-01-12T09:11:16.830Z,96821.41
2023-01-12T09:13:45.772Z,96814.09
2023-01-12T09:16:15.482Z,96808.75
2023-01-12T09:18:43.468Z,96799.97
2023-01-12T09:21:12.642Z,96809.06
2023-01-12T09:23:40.419Z,96804.53
2023-01-12T09:26:11.065Z,96803.59
2023-01-12T09:28:38.611Z,96800.19
2023-01-12T09:31:10.146Z,96805.19
2023-01-12T09:33:38.733Z,96799.03
2023-01-12T09:36:08.413Z,96802.13
2023-01-12T09:38:36.709Z,96800.19
2023-01-12T09:41:11.451Z,96801.63
2023-01-12T09:43:57.700Z,96818.06
2023-01-12T09:46:49.178Z,96814.31
2023-01-12T09:49:18.319Z,96839.16
2023-01-12T09:51:52.277Z,96825.03
2023-01-12T09:54:20.662Z,96817.91
2023-01-12T09:56:54.434Z,96837.72
2023-01-12T09:59:38.649Z,96829.59
2023-01-12T10:02:12.834Z,96823.28
2023-01-12T10:04:40.812Z,96822.13
2023-01-12T10:07:14.828Z,96807.06
2023-01-12T10:09:43.097Z,96802.50
2023-01-12T10:12:20.390Z,96810.81
2023-01-12T10:15:17.573Z,96807.06
2023-01-12T10:17:52.285Z,96800.72
2023-01-12T10:20:28.470Z,96816.31
2023-01-12T10:23:01.845Z,96806.59
2023-01-12T10:25:35.900Z,96807.38
2023-01-12T10:28:08.234Z,96809.03
2023-01-12T10:30:39.239Z,96813.09
2023-01-12T10:33:14.273Z,96793.09
2023-01-12T10:35:54.183Z,96817.00
2023-01-12T10:38:28.303Z,96801.41
2023-01-12T10:41:14.430Z,96796.19
2023-01-12T10:43:43.487Z,96796.00
2023-01-12T10:46:14.302Z,96788.06
2023-01-12T10:48:45.669Z,96786.13
2023-01-12T10:51:26.051Z,96766.13
2023-01-12T10:53:57.709Z,96766.94
2023-01-12T10:56:30.137Z,96764.84
2023-01-12T10:59:01.806Z,96776.69
2023-01-12T11:01:44.694Z,96749.72
2023-01-12T11:04:15.267Z,96755.59
2023-01-12T11:06:45.300Z,96755.59
2023-01-12T11:09:20.226Z,96751.88
2023-01-12T11:11:47.819Z,96756.56
2023-01-12T11:14:26.675Z,96761.44
2023-01-12T11:16:54.184Z,96760.94
2023-01-12T11:19:30.277Z,96751.03
2023-01-12T11:22:02.426Z,96753.28
2023-01-12T11:24:38.093Z,96762.56
2023-01-12T11:27:15.027Z,96750.22
2023-01-12T11:29:48.140Z,96745.47
2023-01-12T11:32:20.839Z,96733.91
2023-01-12T11:35:05.308Z,96740.41
2023-01-12T11:37:38.689Z,96732.09
2023-01-12T11:40:16.563Z,96764.63
2023-01-12T11:43:11.197Z,96742.50
2023-01-12T11:45:47.266Z,96734.38
2023-01-12T11:48:24.662Z,96739.22
2023-01-12T11:50:54.888Z,96725.22
2023-01-12T11:53:25.553Z,96717.75
2023-01-12T11:56:10.828Z,96730.25
2023-01-12T11:58:46.530Z,96722.28
2023-01-12T12:01:21.571Z,96738.72
2023-01-12T12:03:55.564Z,96723.91
2023-01-12T12:06:56.251Z,96721.94
2023-01-12T12:09:40.199Z,96731.19
2023-01-12T12:12:16.661Z,96727.44
2023-01-12T12:14:59.431Z,96721.91
2023-01-12T12:17:41.670Z,96716.50
2023-01-12T12:20:17.378Z,96710.50
2023-01-12T12:23:00.653Z,96701.09
2023-01-12T12:25:39.200Z,96698.47
2023-01-12T12:28:21.656Z,96679.28
2023-01-12T12:31:09.944Z,96686.44
2023-01-12T12:34:00.749Z,96691.47
2023-01-12T12:36:35.482Z,96688.72
2023-01-12T12:39:39.444Z,96690.16
2023-01-12T12:42:36.268Z,96692.59
2023-01-12T12:45:18.383Z,96676.00
2023-01-12T12:48:06.981Z,96689.81
2023-01-12T12:50:41.033Z,96680.19
2023-01-12T12:53:17.169Z,96683.44
2023-01-12T12:55:47.202Z,96670.25
2023-01-12T12:58:42.948Z,96679.53
2023-01-12T13:01:42.730Z,96668.13
2023-01-12T13:04:12.764Z,96667.78
2023-01-12T13:06:44.805Z,96667.47
2023-01-12T13:09:40.898Z,96660.09
2023-01-12T13:12:32.843Z,96653.09
2023-01-12T13:15:19.116Z,96663.50
2023-01-12T13:17:48.831Z,96674.75
2023-01-12T13:20:36.703Z,96657.50
2023-01-12T13:23:25.708Z,96656.69
2023-01-12T13:25:57.573Z,96659.28
2023-01-12T13:28:26.443Z,96671.66
2023-01-12T13:30:55.470Z,96673.31
2023-01-12T13:33:25.633Z,96657.69
2023-01-12T13:36:10.367Z,96673.09
2023-01-12T13:38:53.127Z,96661.53
2023-01-12T13:41:49.594Z,96653.72
2023-01-12T13:44:25.102Z,96650.16
2023-01-12T13:47:00.281Z,96650.78
2023-01-12T13:49:31.223Z,96664.44
2023-01-12T13:52:00.907Z,96661.66
2023-01-12T13:54:29.196Z,96652.72
2023-01-12T13:56:59.731Z,96655.94
2023-01-12T13:59:30.001Z,96655.13
2023-01-12T14:01:58.630Z,96650.09
2023-01-12T14:04:57.718Z,96660.97
2023-01-12T14:07:53.643Z,96645.97
2023-01-12T14:10:35.421Z,96651.03
2023-01-12T14:13:28.945Z,96668.25
2023-01-12T14:16:19.648Z,96654.44
2023-01-12T14:18:48.801Z,96669.25
2023-01-12T14:21:23.245Z,96664.03
2023-01-12T14:23:50.904Z,96663.25
2023-01-12T14:26:23.882Z,96657.84
2023-01-12T14:28:52.905Z,96649.22
2023-01-12T14:31:28.140Z,96663.03
2023-01-12T14:33:57.349Z,96654.44
2023-01-12T14:36:29.160Z,96656.06
2023-01-12T14:38:59.132Z,96658.66
2023-01-12T14:41:46.286Z,96653.47
2023-01-12T14:44:37.603Z,96654.25
2023-01-12T14:47:06.938Z,96652.28
2023-01-12T14:49:35.927Z,96647.09
2023-01-12T14:52:22.873Z,96649.50
2023-01-12T14:54:52.092Z,96643.31
2023-01-12T14:57:23.849Z,96645.75
2023-01-12T14:59:51.794Z,96645.75
2023-01-12T15:02:31.007Z,96642.31
2023-01-12T15:05:01.327Z,96634.69
2023-01-12T15:07:34.149Z,96632.44
2023-01-12T15:10:03.875Z,96634.22
2023-01-12T15:12:44.921Z,96634.75
2023-01-12T15:15:21.488Z,96636.56
2023-01-12T15:18:09.635Z,96632.31
2023-01-12T15:20:56.998Z,96631.97
2023-01-12T15:23:46.331Z,96622.38
2023-01-12T15:26:13.965Z,96629.19
2023-01-12T15:28:41.911Z,96622.38
2023-01-12T15:31:20.303Z,96639.59
2023-01-12T15:33:49.245Z,96639.59
2023-01-12T15:36:16.775Z,96635.22
2023-01-12T15:38:44.309Z,96647.59
2023-01-12T15:41:18.303Z,96648.13
2023-01-12T15:43:45.916Z,96642.28
2023-01-12T15:46:19.962Z,96640.00
2023-01-12T15:48:48.807Z,96647.81
2023-01-12T15:51:16.904Z,96641.66
2023-01-12T15:53:44.399Z,96639.03
2023-01-12T15:56:15.181Z,96646.84
2023-01-12T15:58:42.949Z,96637.88
2023-01-12T16:01:14.962Z,96649.91
2023-01-12T16:04:09.505Z,96631.88
2023-01-12T16:06:33.833Z,96648.31
2023-01-12T16:09:01.930Z,96642.28
2023-01-12T16:11:29.433Z,96644.25
2023-01-12T16:13:57.674Z,96641.81
2023-01-12T16:16:26.551Z,96635.81
2023-01-12T16:18:59.756Z,96643.78
2023-01-12T16:21:29.397Z,96639.38
2023-01-12T16:23:58.219Z,96625.72
2023-01-12T16:26:26.694Z,96627.19
2023-01-12T16:28:54.751Z,96631.41
2023-01-12T16:31:22.442Z,96620.81
2023-01-12T16:33:49.981Z,96629.91
2023-01-12T16:36:17.552Z,96631.50
2023-01-12T16:38:45.058Z,96630.50
2023-01-12T16:41:18.775Z,96639.97
2023-01-12T16:43:46.355Z,96635.56
2023-01-12T16:46:14.625Z,96631.34
2023-01-12T16:48:42.249Z,96637.72
2023-01-12T16:51:11.528Z,96636.44
2023-01-12T16:53:40.606Z,96636.72
2023-01-12T16:56:08.396Z,96631.50
2023-01-12T16:58:37.692Z,96633.31
2023-01-12T17:01:11.504Z,96625.50
2023-01-12T17:03:41.591Z,96634.91
2023-01-12T17:06:10.767Z,96625.50
2023-01-12T17:08:39.044Z,96624.88
2023-01-12T17:11:08.532Z,96631.88
2023-01-12T17:13:37.891Z,96630.88
2023-01-12T17:16:09.120Z,96622.09
2023-01-12T17:18:37.349Z,96630.72
2023-01-12T17:21:07.840Z,96621.91
2023-01-12T17:23:36.414Z,96619.28
2023-01-12T17:26:04.733Z,96617.50
2023-01-12T17:28:34.855Z,96621.09
2023-01-12T17:31:08.099Z,96621.25
2023-01-12T17:33:35.849Z,96616.25
2023-01-12T17:36:05.349Z,96619.00
2023-01-12T17:38:33.326Z,96627.00
2023-01-12T17:41:00.889Z,96615.13
2023-01-12T17:43:27.471Z,96618.53
2023-01-12T17:45:55.094Z,96612.38
2023-01-12T17:48:23.925Z,96614.97
2023-01-12T17:50:51.667Z,96616.56
2023-01-12T17:53:19.825Z,96613.81
2023-01-12T17:55:49.169Z,96613.81
2023-01-12T17:58:18.605Z,96613.00
2023-01-12T18:00:46.296Z,96616.25
2023-01-12T18:03:13.865Z,96613.44
2023-01-12T18:05:46.911Z,96598.66
2023-01-12T18:08:14.656Z,96599.63
2023-01-12T18:10:42.167Z,96608.25
2023-01-12T18:13:10.743Z,96600.25
2023-01-12T18:15:41.267Z,96599.09
2023-01-12T18:18:08.792Z,96592.91
2023-01-12T18:20:36.274Z,96589.47
2023-01-12T18:23:05.088Z,96582.66
2023-01-12T18:25:36.227Z,96578.78
2023-01-12T18:28:05.182Z,96587.59
2023-01-12T18:30:32.703Z,96582.41
2023-01-12T18:33:00.228Z,96573.13
2023-01-12T18:35:28.052Z,96574.59
2023-01-12T18:37:55.679Z,96567.75
2023-01-12T18:40:24.543Z,96566.13
2023-01-12T18:42:51.051Z,96565.94
2023-01-12T18:45:19.363Z,96566.13
2023-01-12T18:48:04.379Z,96567.09
2023-01-12T18:51:01.153Z,96563.69
2023-01-12T18:53:32.416Z,96552.47
2023-01-12T18:56:03.182Z,96558.31
2023-01-12T18:58:33.281Z,96564.34
2023-01-12T19:01:02.769Z,96553.13
2023-01-12T19:03:30.304Z,96560.56
2023-01-12T19:06:01.038Z,96542.16
2023-01-12T19:08:47.101Z,96550.94
2023-01-12T19:11:17.142Z,96548.34
2023-01-12T19:14:02.372Z,96542.97
2023-01-12T19:16:47.668Z,96533.34
2023-01-12T19:19:15.400Z,96540.38
2023-01-12T19:22:00.529Z,96531.75
2023-01-12T19:24:45.910Z,96535.00
2023-01-12T19:27:38.123Z,96523.56
2023-01-12T19:30:06.949Z,96526.81
2023-01-12T19:32:34.713Z,96524.19
2023-01-12T19:35:10.655Z,96528.59
2023-01-12T19:37:39.217Z,96528.59
2023-01-12T19:40:13.486Z,96532.19
2023-01-12T19:43:00.153Z,96536.97
2023-01-12T19:45:27.664Z,96529.31
2023-01-12T19:47:55.271Z,96536.50
2023-01-12T19:50:22.812Z,96533.25
2023-01-12T19:52:50.341Z,96520.22
2023-01-12T19:55:17.861Z,96537.50
2023-01-12T19:57:46.728Z,96524.47
2023-01-12T20:00:16.402Z,96522.66
2023-01-12T20:02:44.673Z,96530.31
2023-01-12T20:05:17.123Z,96523.63
2023-01-12T20:07:44.670Z,96524.81
2023-01-12T20:10:12.288Z,96512.16
2023-01-12T20:12:39.831Z,96496.69
2023-01-12T20:15:10.336Z,96506.31
2023-01-12T20:17:38.069Z,96520.28
2023-01-12T20:20:08.310Z,96515.09
2023-01-12T20:22:36.251Z,96514.13
2023-01-12T20:25:03.934Z,96514.91
2023-01-12T20:27:33.154Z,96518.34
2023-01-12T20:30:01.197Z,96511.16
2023-01-12T20:32:32.320Z,96526.78
2023-01-12T20:35:03.418Z,96514.75
2023-01-12T20:37:30.957Z,96504.34
2023-01-12T20:39:58.492Z,96501.56
2023-01-12T20:42:26.221Z,96496.38
2023-01-12T20:44:53.708Z,96495.53
2023-01-12T20:47:21.648Z,96499.13
2023-01-12T20:49:50.474Z,96489.53
2023-01-12T20:52:18.020Z,96491.50
2023-01-12T20:54:45.591Z,96489.88
2023-01-12T20:57:13.084Z,96488.09
2023-01-12T20:59:40.981Z,96485.47
2023-01-12T21:02:09.020Z,96488.88
2023-01-12T21:04:36.568Z,96473.44
2023-01-12T21:07:05.376Z,96480.63
2023-01-12T21:09:32.957Z,96472.19
2023-01-12T21:12:00.474Z,96457.56
2023-01-12T21:14:28.393Z,96460.16
2023-01-12T21:16:55.856Z,96453.34
2023-01-12T21:19:23.353Z,96464.56
2023-01-12T21:21:50.835Z,96460.78
2023-01-12T21:24:19.755Z,96460.41
2023-01-12T21:26:47.470Z,96462.84
2023-01-12T21:29:14.989Z,96452.59
2023-01-12T21:31:42.514Z,96447.41
2023-01-12T21:34:10.060Z,96446.59
2023-01-12T21:36:38.547Z,96458.00
2023-01-12T21:39:09.071Z,96455.56
2023-01-12T21:45:05.460Z,96446.16
2023-01-12T21:47:34.131Z,96439.31
2023-01-12T21:50:02.649Z,96450.75
2023-01-12T21:52:33.326Z,96437.09
2023-01-12T21:55:02.062Z,96434.50
2023-01-12T21:57:32.127Z,96450.09
2023-01-12T22:00:01.007Z,96436.09
2023-01-12T22:02:31.308Z,96438.53
2023-01-12T22:05:00.628Z,96442.94
2023-01-12T22:07:29.878Z,96443.91
2023-01-12T22:10:18.411Z,96445.69
2023-01-12T22:12:49.920Z,96446.34
2023-01-12T22:15:18.976Z,96451.38
2023-01-12T22:17:48.625Z,96444.53
2023-01-12T22:20:18.405Z,96438.53
2023-01-12T22:22:47.844Z,96436.09
2023-01-12T22:25:19.016Z,96436.09
2023-01-12T22:27:50.628Z,96453.34
2023-01-12T22:30:22.244Z,96437.72
2023-01-12T22:32:54.031Z,96452.50
2023-01-12T22:35:23.945Z,96438.69
2023-01-12T22:37:53.160Z,96440.97
2023-01-12T22:40:22.064Z,96433.94
2023-01-12T22:43:10.908Z,96439.16
2023-01-12T22:45:41.457Z,96438.34
2023-01-12T22:48:11.491Z,96451.16
2023-01-12T22:50:42.062Z,96446.78
2023-01-12T22:53:11.948Z,96445.78
2023-01-12T22:55:43.468Z,96439.78
2023-01-12T22:58:15.975Z,96444.78
2023-01-12T23:00:46.270Z,96440.22
2023-01-12T23:03:18.220Z,96443.44
2023-01-12T23:05:49.813Z,96432.88
2023-01-12T23:08:20.271Z,96427.66
2023-01-12T23:10:54.345Z,96433.66
2023-01-12T23:13:27.692Z,96423.09
2023-01-12T23:16:06.656Z,96429.09
2023-01-12T23:18:39.624Z,96428.13
2023-01-12T23:21:15.890Z,96420.94
2023-01-12T23:23:51.045Z,96433.97
2023-01-12T23:26:28.292Z,96420.13
2023-01-12T23:29:03.938Z,96406.47
2023-01-12T23:31:36.809Z,96405.66
2023-01-12T23:34:10.354Z,96399.81
2023-01-12T23:36:42.819Z,96400.44
2023-01-12T23:39:13.691Z,96401.88
2023-01-12T23:41:43.863Z,96403.50
2023-01-12T23:44:18.122Z,96398.13
2023-01-12T23:46:48.735Z,96407.56
2023-01-12T23:49:19.583Z,96402.97
2023-01-12T23:51:49.736Z,96400.00
2023-01-12T23:54:21.945Z,96394.44
2023-01-12T23:56:56.624Z,96399.66
2023-01-12T23:59:27.657Z,96394.06
